Terminal Aerodrome Forecast
Issued by NWS Portland, OR

Home | Current Version | Previous Version | Text Only | Print | Product List | Glossary On
Versions: 1 2 3 4 5 6 7 8 9 10 11 12 13 14 15 16 17 18 19 20 21 22 23 24 25
000
FTUS46 KPQR 240520
TAFPDX
TAF
KPDX 240520Z 2406/2506 12013KT P6SM -RA SCT025 BKN035 OVC050
     FM240900 13011KT P6SM -RA SCT015 BKN025 OVC040
      TEMPO 2415/2419 BKN015 OVC025
     FM250000 17013KT 5SM -SHRA BKN025 OVC035
     FM250400 19007KT P6SM -SHRA BKN035 OVC050=

USA.gov is the U.S. government's official web portal to all federal, state and local government web resources and services.